sensor_id;sensor_type;location;lat;lon;timestamp;P1;durP1;ratioP1;P2;durP2;ratioP2
4547;SDS011;2286;51.570;7.090;2023-05-31T00:02:06;7.80;;;7.20;;
4547;SDS011;2286;51.570;7.090;2023-05-31T00:04:33;7.70;;;7.10;;
4547;SDS011;2286;51.570;7.090;2023-05-31T00:07:00;7.37;;;6.87;;
4547;SDS011;2286;51.570;7.090;2023-05-31T00:09:27;7.93;;;7.30;;
4547;SDS011;2286;51.570;7.090;2023-05-31T00:11:54;8.10;;;7.40;;
4547;SDS011;2286;51.570;7.090;2023-05-31T00:14:21;7.83;;;7.13;;
4547;SDS011;2286;51.570;7.090;2023-05-31T00:16:49;8.27;;;7.57;;
4547;SDS011;2286;51.570;7.090;2023-05-31T00:19:15;7.60;;;6.90;;
4547;SDS011;2286;51.570;7.090;2023-05-31T00:21:42;8.10;;;7.37;;
4547;SDS011;2286;51.570;7.090;2023-05-31T00:24:10;8.20;;;7.43;;
4547;SDS011;2286;51.570;7.090;2023-05-31T00:26:37;7.73;;;7.03;;
4547;SDS011;2286;51.570;7.090;2023-05-31T00:29:04;7.73;;;7.13;;
4547;SDS011;2286;51.570;7.090;2023-05-31T00:31:31;8.40;;;7.70;;
4547;SDS011;2286;51.570;7.090;2023-05-31T00:33:59;7.33;;;6.63;;
4547;SDS011;2286;51.570;7.090;2023-05-31T00:36:26;8.67;;;7.97;;
4547;SDS011;2286;51.570;7.090;2023-05-31T00:38:53;7.90;;;7.20;;
4547;SDS011;2286;51.570;7.090;2023-05-31T00:41:20;8.37;;;7.60;;
4547;SDS011;2286;51.570;7.090;2023-05-31T00:43:48;7.60;;;7.00;;
4547;SDS011;2286;51.570;7.090;2023-05-31T00:46:18;8.53;;;7.83;;
4547;SDS011;2286;51.570;7.090;2023-05-31T00:48:51;8.37;;;7.47;;
4547;SDS011;2286;51.570;7.090;2023-05-31T00:51:19;8.20;;;7.53;;
4547;SDS011;2286;51.570;7.090;2023-05-31T00:53:47;8.20;;;7.50;;
4547;SDS011;2286;51.570;7.090;2023-05-31T00:56:13;7.70;;;7.10;;
4547;SDS011;2286;51.570;7.090;2023-05-31T00:58:41;7.33;;;6.80;;
4547;SDS011;2286;51.570;7.090;2023-05-31T01:01:10;8.67;;;7.60;;
4547;SDS011;2286;51.570;7.090;2023-05-31T01:03:39;8.63;;;7.33;;
4547;SDS011;2286;51.570;7.090;2023-05-31T01:06:06;9.27;;;8.27;;
4547;SDS011;2286;51.570;7.090;2023-05-31T01:08:35;9.27;;;8.30;;
4547;SDS011;2286;51.570;7.090;2023-05-31T01:11:02;8.67;;;7.90;;
4547;SDS011;2286;51.570;7.090;2023-05-31T01:13:37;7.83;;;7.13;;
4547;SDS011;2286;51.570;7.090;2023-05-31T01:16:10;8.60;;;7.83;;
4547;SDS011;2286;51.570;7.090;2023-05-31T01:18:43;9.70;;;8.87;;
4547;SDS011;2286;51.570;7.090;2023-05-31T01:21:17;8.67;;;7.97;;
4547;SDS011;2286;51.570;7.090;2023-05-31T01:23:50;8.93;;;8.23;;
4547;SDS011;2286;51.570;7.090;2023-05-31T01:26:34;8.57;;;7.87;;
4547;SDS011;2286;51.570;7.090;2023-05-31T01:29:04;8.90;;;8.20;;
4547;SDS011;2286;51.570;7.090;2023-05-31T01:31:33;9.40;;;8.70;;
4547;SDS011;2286;51.570;7.090;2023-05-31T01:34:01;8.73;;;7.30;;
4547;SDS011;2286;51.570;7.090;2023-05-31T01:36:29;9.13;;;8.00;;
4547;SDS011;2286;51.570;7.090;2023-05-31T01:38:57;8.30;;;7.53;;
4547;SDS011;2286;51.570;7.090;2023-05-31T01:41:24;8.80;;;8.10;;
4547;SDS011;2286;51.570;7.090;2023-05-31T01:43:55;8.93;;;8.13;;
4547;SDS011;2286;51.570;7.090;2023-05-31T01:46:23;9.87;;;8.97;;
4547;SDS011;2286;51.570;7.090;2023-05-31T01:48:50;9.10;;;8.33;;
4547;SDS011;2286;51.570;7.090;2023-05-31T01:51:18;9.20;;;8.33;;
4547;SDS011;2286;51.570;7.090;2023-05-31T01:53:46;9.30;;;8.50;;
4547;SDS011;2286;51.570;7.090;2023-05-31T01:56:13;9.37;;;8.57;;
4547;SDS011;2286;51.570;7.090;2023-05-31T01:58:40;10.47;;;9.47;;
4547;SDS011;2286;51.570;7.090;2023-05-31T02:01:13;9.10;;;8.40;;
4547;SDS011;2286;51.570;7.090;2023-05-31T02:03:42;10.83;;;9.73;;
4547;SDS011;2286;51.570;7.090;2023-05-31T02:06:09;10.47;;;9.57;;
4547;SDS011;2286;51.570;7.090;2023-05-31T02:08:38;9.17;;;8.47;;
4547;SDS011;2286;51.570;7.090;2023-05-31T02:11:05;10.73;;;9.80;;
4547;SDS011;2286;51.570;7.090;2023-05-31T02:13:32;10.77;;;9.87;;
4547;SDS011;2286;51.570;7.090;2023-05-31T02:15:59;10.27;;;9.30;;
4547;SDS011;2286;51.570;7.090;2023-05-31T02:18:27;10.90;;;9.60;;
4547;SDS011;2286;51.570;7.090;2023-05-31T02:20:55;10.77;;;9.77;;
4547;SDS011;2286;51.570;7.090;2023-05-31T02:23:22;10.73;;;9.63;;
4547;SDS011;2286;51.570;7.090;2023-05-31T02:25:49;10.30;;;9.50;;
4547;SDS011;2286;51.570;7.090;2023-05-31T02:28:17;11.03;;;10.13;;
4547;SDS011;2286;51.570;7.090;2023-05-31T02:30:52;11.77;;;10.63;;
4547;SDS011;2286;51.570;7.090;2023-05-31T02:33:19;11.43;;;10.40;;
4547;SDS011;2286;51.570;7.090;2023-05-31T02:35:48;11.43;;;10.33;;
4547;SDS011;2286;51.570;7.090;2023-05-31T02:38:15;11.40;;;10.53;;
4547;SDS011;2286;51.570;7.090;2023-05-31T02:40:42;12.30;;;11.10;;
4547;SDS011;2286;51.570;7.090;2023-05-31T02:43:09;11.70;;;10.67;;
4547;SDS011;2286;51.570;7.090;2023-05-31T02:45:36;14.70;;;12.93;;
4547;SDS011;2286;51.570;7.090;2023-05-31T02:48:02;12.37;;;11.17;;
4547;SDS011;2286;51.570;7.090;2023-05-31T02:50:30;12.07;;;10.97;;
4547;SDS011;2286;51.570;7.090;2023-05-31T02:52:59;12.30;;;11.10;;
4547;SDS011;2286;51.570;7.090;2023-05-31T02:55:29;12.17;;;11.17;;
4547;SDS011;2286;51.570;7.090;2023-05-31T02:57:56;12.40;;;11.30;;
4547;SDS011;2286;51.570;7.090;2023-05-31T03:00:23;12.70;;;11.50;;
4547;SDS011;2286;51.570;7.090;2023-05-31T03:02:50;13.00;;;11.70;;
4547;SDS011;2286;51.570;7.090;2023-05-31T03:05:17;11.90;;;10.90;;
4547;SDS011;2286;51.570;7.090;2023-05-31T03:07:44;13.37;;;12.00;;
4547;SDS011;2286;51.570;7.090;2023-05-31T03:10:12;13.20;;;12.00;;
4547;SDS011;2286;51.570;7.090;2023-05-31T03:12:39;13.90;;;12.47;;
4547;SDS011;2286;51.570;7.090;2023-05-31T03:15:06;13.00;;;11.80;;
4547;SDS011;2286;51.570;7.090;2023-05-31T03:17:34;12.63;;;11.60;;
4547;SDS011;2286;51.570;7.090;2023-05-31T03:20:02;13.10;;;11.80;;
4547;SDS011;2286;51.570;7.090;2023-05-31T03:22:31;11.93;;;10.73;;
4547;SDS011;2286;51.570;7.090;2023-05-31T03:24:58;13.30;;;12.10;;
4547;SDS011;2286;51.570;7.090;2023-05-31T03:27:26;13.47;;;12.07;;
4547;SDS011;2286;51.570;7.090;2023-05-31T03:29:53;13.83;;;12.53;;
4547;SDS011;2286;51.570;7.090;2023-05-31T03:32:20;12.67;;;11.60;;
4547;SDS011;2286;51.570;7.090;2023-05-31T03:34:47;14.37;;;12.90;;
4547;SDS011;2286;51.570;7.090;2023-05-31T03:37:13;14.47;;;13.07;;
4547;SDS011;2286;51.570;7.090;2023-05-31T03:39:40;15.13;;;13.57;;
4547;SDS011;2286;51.570;7.090;2023-05-31T03:42:07;15.57;;;14.17;;
4547;SDS011;2286;51.570;7.090;2023-05-31T03:44:35;14.53;;;13.23;;
4547;SDS011;2286;51.570;7.090;2023-05-31T03:47:02;22.60;;;13.20;;
4547;SDS011;2286;51.570;7.090;2023-05-31T03:49:30;16.97;;;13.90;;
4547;SDS011;2286;51.570;7.090;2023-05-31T03:51:56;14.43;;;13.00;;
4547;SDS011;2286;51.570;7.090;2023-05-31T03:54:23;14.93;;;13.17;;
4547;SDS011;2286;51.570;7.090;2023-05-31T03:56:50;14.97;;;13.37;;
4547;SDS011;2286;51.570;7.090;2023-05-31T03:59:17;15.53;;;14.10;;
4547;SDS011;2286;51.570;7.090;2023-05-31T04:01:46;15.50;;;13.90;;
4547;SDS011;2286;51.570;7.090;2023-05-31T04:04:12;15.63;;;14.00;;
4547;SDS011;2286;51.570;7.090;2023-05-31T04:06:39;15.73;;;13.90;;
4547;SDS011;2286;51.570;7.090;2023-05-31T04:09:06;17.43;;;15.23;;
4547;SDS011;2286;51.570;7.090;2023-05-31T04:11:33;16.23;;;14.53;;
4547;SDS011;2286;51.570;7.090;2023-05-31T04:14:00;19.10;;;14.93;;
4547;SDS011;2286;51.570;7.090;2023-05-31T04:16:26;17.77;;;15.07;;
4547;SDS011;2286;51.570;7.090;2023-05-31T04:18:54;16.33;;;14.60;;
4547;SDS011;2286;51.570;7.090;2023-05-31T04:21:21;16.80;;;13.30;;
4547;SDS011;2286;51.570;7.090;2023-05-31T04:23:48;15.17;;;13.57;;
4547;SDS011;2286;51.570;7.090;2023-05-31T04:26:15;16.07;;;14.47;;
4547;SDS011;2286;51.570;7.090;2023-05-31T04:28:42;16.90;;;13.07;;
4547;SDS011;2286;51.570;7.090;2023-05-31T04:31:09;16.33;;;14.73;;
4547;SDS011;2286;51.570;7.090;2023-05-31T04:33:36;14.57;;;13.17;;
4547;SDS011;2286;51.570;7.090;2023-05-31T04:36:05;14.40;;;13.10;;
4547;SDS011;2286;51.570;7.090;2023-05-31T04:38:33;15.30;;;13.50;;
4547;SDS011;2286;51.570;7.090;2023-05-31T04:41:01;16.03;;;14.37;;
4547;SDS011;2286;51.570;7.090;2023-05-31T04:43:28;14.17;;;12.83;;
4547;SDS011;2286;51.570;7.090;2023-05-31T04:45:55;15.33;;;13.80;;
4547;SDS011;2286;51.570;7.090;2023-05-31T04:48:22;18.27;;;14.20;;
4547;SDS011;2286;51.570;7.090;2023-05-31T04:50:51;16.10;;;14.70;;
4547;SDS011;2286;51.570;7.090;2023-05-31T04:53:21;15.27;;;13.87;;
4547;SDS011;2286;51.570;7.090;2023-05-31T04:55:48;16.70;;;13.57;;
4547;SDS011;2286;51.570;7.090;2023-05-31T04:58:16;15.73;;;14.37;;
4547;SDS011;2286;51.570;7.090;2023-05-31T05:00:44;15.80;;;14.10;;
4547;SDS011;2286;51.570;7.090;2023-05-31T05:03:11;15.47;;;13.80;;
4547;SDS011;2286;51.570;7.090;2023-05-31T05:05:38;16.13;;;14.50;;
4547;SDS011;2286;51.570;7.090;2023-05-31T05:08:05;18.03;;;14.10;;
4547;SDS011;2286;51.570;7.090;2023-05-31T05:10:33;14.57;;;13.27;;
4547;SDS011;2286;51.570;7.090;2023-05-31T05:13:00;15.60;;;14.10;;
4547;SDS011;2286;51.570;7.090;2023-05-31T05:15:27;13.93;;;12.57;;
4547;SDS011;2286;51.570;7.090;2023-05-31T05:17:53;18.00;;;12.83;;
4547;SDS011;2286;51.570;7.090;2023-05-31T05:20:20;18.47;;;12.77;;
4547;SDS011;2286;51.570;7.090;2023-05-31T05:22:49;15.80;;;13.17;;
4547;SDS011;2286;51.570;7.090;2023-05-31T05:25:17;18.53;;;13.87;;
4547;SDS011;2286;51.570;7.090;2023-05-31T05:27:46;13.67;;;12.20;;
4547;SDS011;2286;51.570;7.090;2023-05-31T05:30:13;15.40;;;12.17;;
4547;SDS011;2286;51.570;7.090;2023-05-31T05:32:41;17.70;;;13.03;;
4547;SDS011;2286;51.570;7.090;2023-05-31T05:35:07;15.53;;;12.83;;
4547;SDS011;2286;51.570;7.090;2023-05-31T05:37:34;15.00;;;11.60;;
4547;SDS011;2286;51.570;7.090;2023-05-31T05:40:01;15.07;;;11.30;;
4547;SDS011;2286;51.570;7.090;2023-05-31T05:42:31;14.17;;;12.87;;
4547;SDS011;2286;51.570;7.090;2023-05-31T05:45:02;13.77;;;12.37;;
4547;SDS011;2286;51.570;7.090;2023-05-31T05:47:32;13.83;;;11.80;;
4547;SDS011;2286;51.570;7.090;2023-05-31T05:49:58;12.80;;;10.93;;
4547;SDS011;2286;51.570;7.090;2023-05-31T05:52:25;13.10;;;11.30;;
4547;SDS011;2286;51.570;7.090;2023-05-31T05:54:52;13.67;;;11.27;;
4547;SDS011;2286;51.570;7.090;2023-05-31T05:57:20;13.07;;;10.87;;
4547;SDS011;2286;51.570;7.090;2023-05-31T05:59:46;12.57;;;11.30;;
4547;SDS011;2286;51.570;7.090;2023-05-31T06:02:15;12.20;;;10.37;;
4547;SDS011;2286;51.570;7.090;2023-05-31T06:04:41;13.53;;;11.00;;
4547;SDS011;2286;51.570;7.090;2023-05-31T06:07:08;14.50;;;10.83;;
4547;SDS011;2286;51.570;7.090;2023-05-31T06:09:35;14.33;;;11.40;;
4547;SDS011;2286;51.570;7.090;2023-05-31T06:12:02;11.10;;;10.00;;
4547;SDS011;2286;51.570;7.090;2023-05-31T06:14:29;10.80;;;9.70;;
4547;SDS011;2286;51.570;7.090;2023-05-31T06:16:56;10.73;;;9.60;;
4547;SDS011;2286;51.570;7.090;2023-05-31T06:19:24;10.53;;;9.37;;
4547;SDS011;2286;51.570;7.090;2023-05-31T06:21:51;11.97;;;10.63;;
4547;SDS011;2286;51.570;7.090;2023-05-31T06:24:21;11.33;;;10.33;;
4547;SDS011;2286;51.570;7.090;2023-05-31T06:26:48;10.97;;;9.90;;
4547;SDS011;2286;51.570;7.090;2023-05-31T06:29:14;10.03;;;8.33;;
4547;SDS011;2286;51.570;7.090;2023-05-31T06:31:41;11.53;;;9.77;;
4547;SDS011;2286;51.570;7.090;2023-05-31T06:34:08;11.77;;;10.20;;
4547;SDS011;2286;51.570;7.090;2023-05-31T06:36:37;10.33;;;9.27;;
4547;SDS011;2286;51.570;7.090;2023-05-31T06:39:03;12.53;;;10.20;;
4547;SDS011;2286;51.570;7.090;2023-05-31T06:41:30;10.57;;;9.50;;
4547;SDS011;2286;51.570;7.090;2023-05-31T06:43:59;10.90;;;9.80;;
4547;SDS011;2286;51.570;7.090;2023-05-31T06:46:26;13.47;;;9.83;;
4547;SDS011;2286;51.570;7.090;2023-05-31T06:48:53;12.00;;;9.60;;
4547;SDS011;2286;51.570;7.090;2023-05-31T06:51:20;16.27;;;10.10;;
4547;SDS011;2286;51.570;7.090;2023-05-31T06:53:49;12.07;;;9.57;;
4547;SDS011;2286;51.570;7.090;2023-05-31T06:56:16;9.80;;;7.30;;
4547;SDS011;2286;51.570;7.090;2023-05-31T06:58:43;11.77;;;9.73;;
4547;SDS011;2286;51.570;7.090;2023-05-31T07:01:10;12.63;;;8.40;;
4547;SDS011;2286;51.570;7.090;2023-05-31T07:03:37;9.63;;;7.73;;
4547;SDS011;2286;51.570;7.090;2023-05-31T07:06:04;11.97;;;8.97;;
4547;SDS011;2286;51.570;7.090;2023-05-31T07:08:31;12.30;;;9.33;;
4547;SDS011;2286;51.570;7.090;2023-05-31T07:10:59;11.67;;;8.73;;
4547;SDS011;2286;51.570;7.090;2023-05-31T07:13:26;11.30;;;8.53;;
4547;SDS011;2286;51.570;7.090;2023-05-31T07:15:53;8.20;;;7.40;;
4547;SDS011;2286;51.570;7.090;2023-05-31T07:18:20;8.67;;;7.67;;
4547;SDS011;2286;51.570;7.090;2023-05-31T07:20:47;11.13;;;8.33;;
4547;SDS011;2286;51.570;7.090;2023-05-31T07:23:13;9.27;;;8.30;;
4547;SDS011;2286;51.570;7.090;2023-05-31T07:25:40;8.37;;;7.57;;
4547;SDS011;2286;51.570;7.090;2023-05-31T07:28:08;8.37;;;7.47;;
4547;SDS011;2286;51.570;7.090;2023-05-31T07:30:35;8.23;;;7.43;;
4547;SDS011;2286;51.570;7.090;2023-05-31T07:33:02;12.10;;;7.20;;
4547;SDS011;2286;51.570;7.090;2023-05-31T07:35:29;11.27;;;7.47;;
4547;SDS011;2286;51.570;7.090;2023-05-31T07:37:56;10.73;;;8.10;;
4547;SDS011;2286;51.570;7.090;2023-05-31T07:40:22;11.40;;;7.10;;
4547;SDS011;2286;51.570;7.090;2023-05-31T07:42:49;10.00;;;7.93;;
4547;SDS011;2286;51.570;7.090;2023-05-31T07:45:17;9.47;;;7.03;;
4547;SDS011;2286;51.570;7.090;2023-05-31T07:47:44;11.77;;;7.20;;
4547;SDS011;2286;51.570;7.090;2023-05-31T07:50:11;9.53;;;7.20;;
4547;SDS011;2286;51.570;7.090;2023-05-31T07:52:38;9.07;;;7.43;;
4547;SDS011;2286;51.570;7.090;2023-05-31T07:55:05;11.17;;;8.17;;
4547;SDS011;2286;51.570;7.090;2023-05-31T07:57:32;8.83;;;7.20;;
4547;SDS011;2286;51.570;7.090;2023-05-31T07:59:59;8.83;;;7.07;;
4547;SDS011;2286;51.570;7.090;2023-05-31T08:02:27;6.20;;;5.60;;
4547;SDS011;2286;51.570;7.090;2023-05-31T08:04:54;8.57;;;6.83;;
4547;SDS011;2286;51.570;7.090;2023-05-31T08:07:25;7.23;;;6.53;;
4547;SDS011;2286;51.570;7.090;2023-05-31T08:09:51;10.83;;;7.10;;
4547;SDS011;2286;51.570;7.090;2023-05-31T08:12:18;6.57;;;5.80;;
4547;SDS011;2286;51.570;7.090;2023-05-31T08:14:45;9.43;;;5.77;;
4547;SDS011;2286;51.570;7.090;2023-05-31T08:17:12;9.93;;;6.27;;
4547;SDS011;2286;51.570;7.090;2023-05-31T08:19:40;6.67;;;6.07;;
4547;SDS011;2286;51.570;7.090;2023-05-31T08:22:07;7.53;;;5.80;;
4547;SDS011;2286;51.570;7.090;2023-05-31T08:24:34;6.60;;;6.00;;
4547;SDS011;2286;51.570;7.090;2023-05-31T08:27:01;9.97;;;5.90;;
4547;SDS011;2286;51.570;7.090;2023-05-31T08:29:27;6.60;;;5.17;;
4547;SDS011;2286;51.570;7.090;2023-05-31T08:31:55;9.03;;;6.40;;
4547;SDS011;2286;51.570;7.090;2023-05-31T08:34:22;11.23;;;5.77;;
4547;SDS011;2286;51.570;7.090;2023-05-31T08:36:50;9.40;;;5.13;;
4547;SDS011;2286;51.570;7.090;2023-05-31T08:39:17;6.87;;;4.90;;
4547;SDS011;2286;51.570;7.090;2023-05-31T08:41:46;7.10;;;5.50;;
4547;SDS011;2286;51.570;7.090;2023-05-31T08:44:19;6.27;;;4.80;;
4547;SDS011;2286;51.570;7.090;2023-05-31T08:46:46;6.83;;;5.60;;
4547;SDS011;2286;51.570;7.090;2023-05-31T08:49:14;13.00;;;4.90;;
4547;SDS011;2286;51.570;7.090;2023-05-31T08:51:42;7.30;;;4.30;;
4547;SDS011;2286;51.570;7.090;2023-05-31T08:54:12;10.73;;;5.30;;
4547;SDS011;2286;51.570;7.090;2023-05-31T08:56:39;5.40;;;4.73;;
4547;SDS011;2286;51.570;7.090;2023-05-31T08:59:07;8.47;;;5.30;;
4547;SDS011;2286;51.570;7.090;2023-05-31T09:01:35;6.67;;;4.33;;
4547;SDS011;2286;51.570;7.090;2023-05-31T09:04:04;5.53;;;3.63;;
4547;SDS011;2286;51.570;7.090;2023-05-31T09:06:31;8.97;;;4.70;;
4547;SDS011;2286;51.570;7.090;2023-05-31T09:08:59;8.53;;;3.97;;
4547;SDS011;2286;51.570;7.090;2023-05-31T09:11:27;11.27;;;4.90;;
4547;SDS011;2286;51.570;7.090;2023-05-31T09:13:54;4.20;;;3.80;;
4547;SDS011;2286;51.570;7.090;2023-05-31T09:16:22;5.43;;;3.90;;
4547;SDS011;2286;51.570;7.090;2023-05-31T09:18:49;9.07;;;4.00;;
4547;SDS011;2286;51.570;7.090;2023-05-31T09:21:26;7.30;;;4.23;;
4547;SDS011;2286;51.570;7.090;2023-05-31T09:23:53;6.90;;;3.10;;
4547;SDS011;2286;51.570;7.090;2023-05-31T09:26:20;7.63;;;3.63;;
4547;SDS011;2286;51.570;7.090;2023-05-31T09:28:49;6.43;;;3.67;;
4547;SDS011;2286;51.570;7.090;2023-05-31T09:31:16;4.83;;;4.03;;
4547;SDS011;2286;51.570;7.090;2023-05-31T09:33:44;7.50;;;3.43;;
4547;SDS011;2286;51.570;7.090;2023-05-31T09:36:13;4.80;;;3.87;;
4547;SDS011;2286;51.570;7.090;2023-05-31T09:38:48;6.37;;;3.90;;
4547;SDS011;2286;51.570;7.090;2023-05-31T09:41:16;5.60;;;3.57;;
4547;SDS011;2286;51.570;7.090;2023-05-31T09:43:45;5.10;;;3.13;;
4547;SDS011;2286;51.570;7.090;2023-05-31T09:46:14;5.13;;;3.07;;
4547;SDS011;2286;51.570;7.090;2023-05-31T09:48:42;4.60;;;2.93;;
4547;SDS011;2286;51.570;7.090;2023-05-31T09:51:09;6.70;;;3.67;;
4547;SDS011;2286;51.570;7.090;2023-05-31T09:53:38;2.70;;;2.37;;
4547;SDS011;2286;51.570;7.090;2023-05-31T09:56:09;3.73;;;2.70;;
4547;SDS011;2286;51.570;7.090;2023-05-31T09:58:37;4.07;;;2.97;;
4547;SDS011;2286;51.570;7.090;2023-05-31T10:01:05;6.47;;;3.03;;
4547;SDS011;2286;51.570;7.090;2023-05-31T10:03:34;5.50;;;2.50;;
4547;SDS011;2286;51.570;7.090;2023-05-31T10:06:01;4.10;;;2.90;;
4547;SDS011;2286;51.570;7.090;2023-05-31T10:08:29;4.10;;;2.43;;
4547;SDS011;2286;51.570;7.090;2023-05-31T10:10:57;4.80;;;2.63;;
4547;SDS011;2286;51.570;7.090;2023-05-31T10:13:26;3.13;;;2.80;;
4547;SDS011;2286;51.570;7.090;2023-05-31T10:15:55;5.87;;;2.70;;
4547;SDS011;2286;51.570;7.090;2023-05-31T10:18:25;3.40;;;2.80;;
4547;SDS011;2286;51.570;7.090;2023-05-31T10:20:58;6.13;;;3.03;;
4547;SDS011;2286;51.570;7.090;2023-05-31T10:23:26;5.03;;;2.37;;
4547;SDS011;2286;51.570;7.090;2023-05-31T10:25:57;4.43;;;2.47;;
4547;SDS011;2286;51.570;7.090;2023-05-31T10:28:36;3.07;;;2.73;;
4547;SDS011;2286;51.570;7.090;2023-05-31T10:31:06;3.40;;;2.40;;
4547;SDS011;2286;51.570;7.090;2023-05-31T10:33:36;3.70;;;2.00;;
4547;SDS011;2286;51.570;7.090;2023-05-31T10:36:07;2.97;;;2.17;;
4547;SDS011;2286;51.570;7.090;2023-05-31T10:38:35;4.80;;;2.80;;
4547;SDS011;2286;51.570;7.090;2023-05-31T10:41:06;3.63;;;2.50;;
4547;SDS011;2286;51.570;7.090;2023-05-31T10:43:39;2.83;;;2.50;;
4547;SDS011;2286;51.570;7.090;2023-05-31T10:46:10;4.80;;;3.10;;
4547;SDS011;2286;51.570;7.090;2023-05-31T10:48:44;3.97;;;2.40;;
4547;SDS011;2286;51.570;7.090;2023-05-31T10:51:18;5.30;;;2.57;;
4547;SDS011;2286;51.570;7.090;2023-05-31T10:53:45;8.07;;;2.47;;
4547;SDS011;2286;51.570;7.090;2023-05-31T10:56:13;5.43;;;2.70;;
4547;SDS011;2286;51.570;7.090;2023-05-31T10:58:41;4.30;;;2.70;;
4547;SDS011;2286;51.570;7.090;2023-05-31T11:01:10;6.00;;;2.80;;
4547;SDS011;2286;51.570;7.090;2023-05-31T11:03:43;5.27;;;2.70;;
4547;SDS011;2286;51.570;7.090;2023-05-31T11:06:12;3.80;;;2.50;;
4547;SDS011;2286;51.570;7.090;2023-05-31T11:11:42;3.20;;;2.50;;
4547;SDS011;2286;51.570;7.090;2023-05-31T11:14:22;3.73;;;2.40;;
4547;SDS011;2286;51.570;7.090;2023-05-31T11:19:51;2.80;;;2.50;;
4547;SDS011;2286;51.570;7.090;2023-05-31T11:22:21;4.43;;;2.23;;
4547;SDS011;2286;51.570;7.090;2023-05-31T11:24:53;2.53;;;2.30;;
4547;SDS011;2286;51.570;7.090;2023-05-31T11:27:23;4.00;;;2.43;;
4547;SDS011;2286;51.570;7.090;2023-05-31T11:30:00;3.33;;;2.30;;
4547;SDS011;2286;51.570;7.090;2023-05-31T11:35:22;2.80;;;2.37;;
4547;SDS011;2286;51.570;7.090;2023-05-31T11:37:49;3.67;;;2.30;;
4547;SDS011;2286;51.570;7.090;2023-05-31T11:40:26;2.70;;;2.30;;
4547;SDS011;2286;51.570;7.090;2023-05-31T11:42:54;5.57;;;2.03;;
4547;SDS011;2286;51.570;7.090;2023-05-31T11:45:28;3.17;;;2.40;;
4547;SDS011;2286;51.570;7.090;2023-05-31T11:47:59;4.20;;;2.20;;
4547;SDS011;2286;51.570;7.090;2023-05-31T11:50:36;3.80;;;2.10;;
4547;SDS011;2286;51.570;7.090;2023-05-31T11:53:03;6.77;;;1.97;;
4547;SDS011;2286;51.570;7.090;2023-05-31T11:55:32;5.73;;;2.50;;
4547;SDS011;2286;51.570;7.090;2023-05-31T11:58:00;7.00;;;2.20;;
4547;SDS011;2286;51.570;7.090;2023-05-31T12:00:27;2.90;;;2.27;;
4547;SDS011;2286;51.570;7.090;2023-05-31T12:02:55;3.73;;;2.57;;
4547;SDS011;2286;51.570;7.090;2023-05-31T12:05:22;2.80;;;2.03;;
4547;SDS011;2286;51.570;7.090;2023-05-31T12:07:52;4.10;;;2.23;;
4547;SDS011;2286;51.570;7.090;2023-05-31T12:10:20;4.80;;;2.03;;
4547;SDS011;2286;51.570;7.090;2023-05-31T12:12:48;2.97;;;2.30;;
4547;SDS011;2286;51.570;7.090;2023-05-31T12:15:15;5.10;;;2.60;;
4547;SDS011;2286;51.570;7.090;2023-05-31T12:17:51;4.33;;;2.50;;
4547;SDS011;2286;51.570;7.090;2023-05-31T12:20:18;3.90;;;2.57;;
4547;SDS011;2286;51.570;7.090;2023-05-31T12:22:45;3.10;;;2.10;;
4547;SDS011;2286;51.570;7.090;2023-05-31T12:25:11;2.47;;;2.13;;
4547;SDS011;2286;51.570;7.090;2023-05-31T12:27:38;2.47;;;1.90;;
4547;SDS011;2286;51.570;7.090;2023-05-31T12:30:06;3.00;;;1.60;;
4547;SDS011;2286;51.570;7.090;2023-05-31T12:32:33;3.10;;;2.40;;
4547;SDS011;2286;51.570;7.090;2023-05-31T12:35:05;3.50;;;2.37;;
4547;SDS011;2286;51.570;7.090;2023-05-31T12:37:34;5.37;;;2.10;;
4547;SDS011;2286;51.570;7.090;2023-05-31T12:40:08;4.43;;;2.23;;
4547;SDS011;2286;51.570;7.090;2023-05-31T12:42:36;3.20;;;2.17;;
4547;SDS011;2286;51.570;7.090;2023-05-31T12:45:03;3.20;;;2.00;;
4547;SDS011;2286;51.570;7.090;2023-05-31T12:47:31;4.17;;;2.40;;
4547;SDS011;2286;51.570;7.090;2023-05-31T12:50:00;2.57;;;2.37;;
4547;SDS011;2286;51.570;7.090;2023-05-31T12:52:32;2.30;;;1.70;;
4547;SDS011;2286;51.570;7.090;2023-05-31T12:54:59;8.23;;;2.13;;
4547;SDS011;2286;51.570;7.090;2023-05-31T12:57:27;4.20;;;2.17;;
4547;SDS011;2286;51.570;7.090;2023-05-31T12:59:57;4.47;;;2.73;;
4547;SDS011;2286;51.570;7.090;2023-05-31T13:02:24;5.97;;;3.00;;
4547;SDS011;2286;51.570;7.090;2023-05-31T13:04:51;3.80;;;2.00;;
4547;SDS011;2286;51.570;7.090;2023-05-31T13:07:18;2.90;;;1.97;;
4547;SDS011;2286;51.570;7.090;2023-05-31T13:09:46;5.73;;;2.17;;
4547;SDS011;2286;51.570;7.090;2023-05-31T13:12:13;8.33;;;2.70;;
4547;SDS011;2286;51.570;7.090;2023-05-31T13:14:40;3.30;;;2.07;;
4547;SDS011;2286;51.570;7.090;2023-05-31T13:17:07;3.30;;;2.50;;
4547;SDS011;2286;51.570;7.090;2023-05-31T13:19:35;3.70;;;2.57;;
4547;SDS011;2286;51.570;7.090;2023-05-31T13:22:02;3.27;;;2.20;;
4547;SDS011;2286;51.570;7.090;2023-05-31T13:24:29;7.10;;;2.50;;
4547;SDS011;2286;51.570;7.090;2023-05-31T13:26:57;5.07;;;2.30;;
4547;SDS011;2286;51.570;7.090;2023-05-31T13:29:24;2.80;;;1.93;;
4547;SDS011;2286;51.570;7.090;2023-05-31T13:31:51;6.33;;;2.00;;
4547;SDS011;2286;51.570;7.090;2023-05-31T13:34:19;4.27;;;2.20;;
4547;SDS011;2286;51.570;7.090;2023-05-31T13:36:46;2.20;;;1.83;;
4547;SDS011;2286;51.570;7.090;2023-05-31T13:39:13;3.93;;;2.10;;
4547;SDS011;2286;51.570;7.090;2023-05-31T13:41:41;3.63;;;2.20;;
4547;SDS011;2286;51.570;7.090;2023-05-31T13:44:09;3.60;;;1.90;;
4547;SDS011;2286;51.570;7.090;2023-05-31T13:46:38;4.77;;;2.40;;
4547;SDS011;2286;51.570;7.090;2023-05-31T13:49:06;3.67;;;2.47;;
4547;SDS011;2286;51.570;7.090;2023-05-31T13:51:32;5.30;;;2.53;;
4547;SDS011;2286;51.570;7.090;2023-05-31T13:53:59;3.10;;;2.00;;
4547;SDS011;2286;51.570;7.090;2023-05-31T13:56:26;2.80;;;2.60;;
4547;SDS011;2286;51.570;7.090;2023-05-31T13:58:53;5.40;;;2.60;;
4547;SDS011;2286;51.570;7.090;2023-05-31T14:01:21;2.53;;;2.33;;
4547;SDS011;2286;51.570;7.090;2023-05-31T14:03:48;3.17;;;2.40;;
4547;SDS011;2286;51.570;7.090;2023-05-31T14:06:15;3.90;;;2.50;;
4547;SDS011;2286;51.570;7.090;2023-05-31T14:08:42;3.17;;;2.20;;
4547;SDS011;2286;51.570;7.090;2023-05-31T14:11:10;2.60;;;2.40;;
4547;SDS011;2286;51.570;7.090;2023-05-31T14:13:38;7.93;;;2.83;;
4547;SDS011;2286;51.570;7.090;2023-05-31T14:16:05;4.30;;;2.17;;
4547;SDS011;2286;51.570;7.090;2023-05-31T14:18:33;4.30;;;2.27;;
4547;SDS011;2286;51.570;7.090;2023-05-31T14:21:00;2.20;;;2.00;;
4547;SDS011;2286;51.570;7.090;2023-05-31T14:23:27;5.57;;;2.57;;
4547;SDS011;2286;51.570;7.090;2023-05-31T14:25:54;5.13;;;2.10;;
4547;SDS011;2286;51.570;7.090;2023-05-31T14:28:21;4.90;;;2.37;;
4547;SDS011;2286;51.570;7.090;2023-05-31T14:30:48;4.47;;;2.73;;
4547;SDS011;2286;51.570;7.090;2023-05-31T14:33:15;4.07;;;2.33;;
4547;SDS011;2286;51.570;7.090;2023-05-31T14:35:44;2.27;;;2.07;;
4547;SDS011;2286;51.570;7.090;2023-05-31T14:38:11;5.20;;;2.53;;
4547;SDS011;2286;51.570;7.090;2023-05-31T14:40:38;2.60;;;2.00;;
4547;SDS011;2286;51.570;7.090;2023-05-31T14:43:05;5.20;;;2.10;;
4547;SDS011;2286;51.570;7.090;2023-05-31T14:45:32;4.00;;;2.40;;
4547;SDS011;2286;51.570;7.090;2023-05-31T14:47:59;4.60;;;2.13;;
4547;SDS011;2286;51.570;7.090;2023-05-31T14:50:25;2.33;;;2.10;;
4547;SDS011;2286;51.570;7.090;2023-05-31T14:52:53;3.63;;;2.20;;
4547;SDS011;2286;51.570;7.090;2023-05-31T14:55:20;4.80;;;2.40;;
4547;SDS011;2286;51.570;7.090;2023-05-31T14:57:47;5.43;;;2.50;;
4547;SDS011;2286;51.570;7.090;2023-05-31T15:00:14;2.30;;;2.20;;
4547;SDS011;2286;51.570;7.090;2023-05-31T15:02:41;2.80;;;2.00;;
4547;SDS011;2286;51.570;7.090;2023-05-31T15:05:08;2.40;;;2.20;;
4547;SDS011;2286;51.570;7.090;2023-05-31T15:07:35;4.80;;;2.50;;
4547;SDS011;2286;51.570;7.090;2023-05-31T15:10:04;7.50;;;2.20;;
4547;SDS011;2286;51.570;7.090;2023-05-31T15:12:31;4.80;;;2.60;;
4547;SDS011;2286;51.570;7.090;2023-05-31T15:14:58;3.33;;;2.27;;
4547;SDS011;2286;51.570;7.090;2023-05-31T15:17:25;5.60;;;2.40;;
4547;SDS011;2286;51.570;7.090;2023-05-31T15:19:51;2.20;;;2.00;;
4547;SDS011;2286;51.570;7.090;2023-05-31T15:22:18;3.53;;;2.60;;